sensor_id;sensor_type;location;lat;lon;timestamp;P1;durP1;ratioP1;P2;durP2;ratioP2
10343;SDS011;5217;43.960;10.954;2022-08-25T00:01:52;2.35;;;2.15;;
10343;SDS011;5217;43.960;10.954;2022-08-25T00:04:23;2.30;;;2.20;;
10343;SDS011;5217;43.960;10.954;2022-08-25T00:06:51;2.55;;;2.25;;
10343;SDS011;5217;43.960;10.954;2022-08-25T00:09:28;2.42;;;2.20;;
10343;SDS011;5217;43.960;10.954;2022-08-25T00:11:59;3.08;;;2.53;;
10343;SDS011;5217;43.960;10.954;2022-08-25T00:14:30;3.83;;;2.22;;
10343;SDS011;5217;43.960;10.954;2022-08-25T00:17:00;2.50;;;2.30;;
10343;SDS011;5217;43.960;10.954;2022-08-25T00:19:34;2.65;;;2.20;;
10343;SDS011;5217;43.960;10.954;2022-08-25T00:22:04;2.63;;;2.40;;
10343;SDS011;5217;43.960;10.954;2022-08-25T00:24:33;2.30;;;2.10;;
10343;SDS011;5217;43.960;10.954;2022-08-25T00:27:04;2.60;;;2.25;;
10343;SDS011;5217;43.960;10.954;2022-08-25T00:29:33;2.35;;;2.15;;
10343;SDS011;5217;43.960;10.954;2022-08-25T00:32:03;2.60;;;2.35;;
10343;SDS011;5217;43.960;10.954;2022-08-25T00:34:38;2.45;;;2.20;;
10343;SDS011;5217;43.960;10.954;2022-08-25T00:37:07;2.60;;;2.40;;
10343;SDS011;5217;43.960;10.954;2022-08-25T00:39:37;2.90;;;2.42;;
10343;SDS011;5217;43.960;10.954;2022-08-25T00:42:07;2.53;;;2.33;;
10343;SDS011;5217;43.960;10.954;2022-08-25T00:44:41;2.40;;;2.10;;
10343;SDS011;5217;43.960;10.954;2022-08-25T00:47:10;3.88;;;2.58;;
10343;SDS011;5217;43.960;10.954;2022-08-25T00:49:39;4.50;;;2.40;;
10343;SDS011;5217;43.960;10.954;2022-08-25T00:52:11;2.47;;;2.28;;
10343;SDS011;5217;43.960;10.954;2022-08-25T00:54:43;2.65;;;2.45;;
10343;SDS011;5217;43.960;10.954;2022-08-25T00:57:18;2.60;;;2.40;;
10343;SDS011;5217;43.960;10.954;2022-08-25T01:00:00;2.42;;;2.25;;
10343;SDS011;5217;43.960;10.954;2022-08-25T01:02:31;2.47;;;2.28;;
10343;SDS011;5217;43.960;10.954;2022-08-25T01:05:00;3.13;;;2.50;;
10343;SDS011;5217;43.960;10.954;2022-08-25T01:07:28;2.40;;;2.20;;
10343;SDS011;5217;43.960;10.954;2022-08-25T01:09:57;2.50;;;2.30;;
10343;SDS011;5217;43.960;10.954;2022-08-25T01:12:28;2.50;;;2.30;;
10343;SDS011;5217;43.960;10.954;2022-08-25T01:14:56;2.78;;;2.30;;
10343;SDS011;5217;43.960;10.954;2022-08-25T01:17:28;4.05;;;2.50;;
10343;SDS011;5217;43.960;10.954;2022-08-25T01:20:01;2.38;;;2.20;;
10343;SDS011;5217;43.960;10.954;2022-08-25T01:22:32;2.67;;;2.47;;
10343;SDS011;5217;43.960;10.954;2022-08-25T01:25:01;3.35;;;2.45;;
10343;SDS011;5217;43.960;10.954;2022-08-25T01:27:33;2.85;;;2.58;;
10343;SDS011;5217;43.960;10.954;2022-08-25T01:30:02;2.60;;;2.40;;
10343;SDS011;5217;43.960;10.954;2022-08-25T01:32:32;2.60;;;2.40;;
10343;SDS011;5217;43.960;10.954;2022-08-25T01:35:01;2.70;;;2.50;;
10343;SDS011;5217;43.960;10.954;2022-08-25T01:37:33;2.92;;;2.50;;
10343;SDS011;5217;43.960;10.954;2022-08-25T01:40:03;2.88;;;2.25;;
10343;SDS011;5217;43.960;10.954;2022-08-25T01:42:36;3.08;;;2.65;;
10343;SDS011;5217;43.960;10.954;2022-08-25T01:45:09;2.55;;;2.33;;
10343;SDS011;5217;43.960;10.954;2022-08-25T01:47:38;2.95;;;2.40;;
10343;SDS011;5217;43.960;10.954;2022-08-25T01:50:06;2.60;;;2.40;;
10343;SDS011;5217;43.960;10.954;2022-08-25T01:52:44;2.55;;;2.35;;
10343;SDS011;5217;43.960;10.954;2022-08-25T01:55:16;2.47;;;2.28;;
10343;SDS011;5217;43.960;10.954;2022-08-25T01:57:45;2.38;;;2.28;;
10343;SDS011;5217;43.960;10.954;2022-08-25T02:00:14;3.05;;;2.53;;
10343;SDS011;5217;43.960;10.954;2022-08-25T02:02:44;2.60;;;2.40;;
10343;SDS011;5217;43.960;10.954;2022-08-25T02:05:20;2.70;;;2.50;;
10343;SDS011;5217;43.960;10.954;2022-08-25T02:07:50;2.65;;;2.28;;
10343;SDS011;5217;43.960;10.954;2022-08-25T02:10:19;2.70;;;2.50;;
10343;SDS011;5217;43.960;10.954;2022-08-25T02:12:48;3.20;;;2.42;;
10343;SDS011;5217;43.960;10.954;2022-08-25T02:15:19;2.78;;;2.58;;
10343;SDS011;5217;43.960;10.954;2022-08-25T02:17:48;2.50;;;2.30;;
10343;SDS011;5217;43.960;10.954;2022-08-25T02:20:17;2.58;;;2.38;;
10343;SDS011;5217;43.960;10.954;2022-08-25T02:22:45;2.50;;;2.30;;
10343;SDS011;5217;43.960;10.954;2022-08-25T02:25:23;3.88;;;2.60;;
10343;SDS011;5217;43.960;10.954;2022-08-25T02:27:52;2.80;;;2.60;;
10343;SDS011;5217;43.960;10.954;2022-08-25T02:30:21;2.78;;;2.58;;
10343;SDS011;5217;43.960;10.954;2022-08-25T02:32:50;2.80;;;2.60;;
10343;SDS011;5217;43.960;10.954;2022-08-25T02:35:18;2.55;;;2.35;;
10343;SDS011;5217;43.960;10.954;2022-08-25T02:37:46;3.08;;;2.72;;
10343;SDS011;5217;43.960;10.954;2022-08-25T02:40:19;3.63;;;2.47;;
10343;SDS011;5217;43.960;10.954;2022-08-25T02:42:49;3.22;;;2.92;;
10343;SDS011;5217;43.960;10.954;2022-08-25T02:45:18;2.60;;;2.40;;
10343;SDS011;5217;43.960;10.954;2022-08-25T02:47:47;3.67;;;2.90;;
10343;SDS011;5217;43.960;10.954;2022-08-25T02:50:15;2.65;;;2.45;;
10343;SDS011;5217;43.960;10.954;2022-08-25T02:52:43;2.80;;;2.60;;
10343;SDS011;5217;43.960;10.954;2022-08-25T02:55:12;2.53;;;2.33;;
10343;SDS011;5217;43.960;10.954;2022-08-25T02:57:40;2.65;;;2.45;;
10343;SDS011;5217;43.960;10.954;2022-08-25T03:00:11;2.80;;;2.60;;
10343;SDS011;5217;43.960;10.954;2022-08-25T03:02:42;2.70;;;2.50;;
10343;SDS011;5217;43.960;10.954;2022-08-25T03:05:13;3.35;;;3.05;;
10343;SDS011;5217;43.960;10.954;2022-08-25T03:07:42;2.88;;;2.63;;
10343;SDS011;5217;43.960;10.954;2022-08-25T03:10:11;3.05;;;2.75;;
10343;SDS011;5217;43.960;10.954;2022-08-25T03:12:42;2.65;;;2.45;;
10343;SDS011;5217;43.960;10.954;2022-08-25T03:15:13;3.30;;;3.00;;
10343;SDS011;5217;43.960;10.954;2022-08-25T03:17:43;3.25;;;2.85;;
10343;SDS011;5217;43.960;10.954;2022-08-25T03:20:12;2.95;;;2.75;;
10343;SDS011;5217;43.960;10.954;2022-08-25T03:22:41;2.75;;;2.55;;
10343;SDS011;5217;43.960;10.954;2022-08-25T03:25:10;3.13;;;2.85;;
10343;SDS011;5217;43.960;10.954;2022-08-25T03:27:58;3.35;;;2.67;;
10343;SDS011;5217;43.960;10.954;2022-08-25T03:30:29;4.30;;;2.88;;
10343;SDS011;5217;43.960;10.954;2022-08-25T03:32:58;2.97;;;2.67;;
10343;SDS011;5217;43.960;10.954;2022-08-25T03:35:26;3.00;;;2.80;;
10343;SDS011;5217;43.960;10.954;2022-08-25T03:37:56;2.97;;;2.75;;
10343;SDS011;5217;43.960;10.954;2022-08-25T03:40:25;2.85;;;2.53;;
10343;SDS011;5217;43.960;10.954;2022-08-25T03:42:53;2.97;;;2.78;;
10343;SDS011;5217;43.960;10.954;2022-08-25T03:45:22;2.85;;;2.63;;
10343;SDS011;5217;43.960;10.954;2022-08-25T03:47:53;3.28;;;3.00;;
10343;SDS011;5217;43.960;10.954;2022-08-25T03:50:21;3.30;;;3.00;;
10343;SDS011;5217;43.960;10.954;2022-08-25T03:52:51;3.13;;;2.92;;
10343;SDS011;5217;43.960;10.954;2022-08-25T03:55:21;2.88;;;2.67;;
10343;SDS011;5217;43.960;10.954;2022-08-25T03:57:51;4.03;;;3.00;;
10343;SDS011;5217;43.960;10.954;2022-08-25T04:00:21;3.05;;;2.85;;
10343;SDS011;5217;43.960;10.954;2022-08-25T04:02:50;2.92;;;2.72;;
10343;SDS011;5217;43.960;10.954;2022-08-25T04:05:20;2.95;;;2.75;;
10343;SDS011;5217;43.960;10.954;2022-08-25T04:07:52;3.33;;;3.03;;
10343;SDS011;5217;43.960;10.954;2022-08-25T04:10:21;3.17;;;2.97;;
10343;SDS011;5217;43.960;10.954;2022-08-25T04:12:49;4.18;;;3.00;;
10343;SDS011;5217;43.960;10.954;2022-08-25T04:15:18;2.70;;;2.50;;
10343;SDS011;5217;43.960;10.954;2022-08-25T04:17:46;4.18;;;2.80;;
10343;SDS011;5217;43.960;10.954;2022-08-25T04:20:20;3.45;;;3.15;;
10343;SDS011;5217;43.960;10.954;2022-08-25T04:22:49;3.33;;;2.72;;
10343;SDS011;5217;43.960;10.954;2022-08-25T04:25:17;3.20;;;2.90;;
10343;SDS011;5217;43.960;10.954;2022-08-25T04:27:46;2.88;;;2.67;;
10343;SDS011;5217;43.960;10.954;2022-08-25T04:30:14;3.28;;;2.97;;
10343;SDS011;5217;43.960;10.954;2022-08-25T04:32:43;3.30;;;3.00;;
10343;SDS011;5217;43.960;10.954;2022-08-25T04:35:11;5.13;;;3.00;;
10343;SDS011;5217;43.960;10.954;2022-08-25T04:37:41;2.88;;;2.67;;
10343;SDS011;5217;43.960;10.954;2022-08-25T04:40:10;3.08;;;2.88;;
10343;SDS011;5217;43.960;10.954;2022-08-25T04:42:39;3.30;;;3.00;;
10343;SDS011;5217;43.960;10.954;2022-08-25T04:45:07;3.35;;;2.70;;
10343;SDS011;5217;43.960;10.954;2022-08-25T04:47:36;3.20;;;2.90;;
10343;SDS011;5217;43.960;10.954;2022-08-25T04:50:05;5.28;;;3.10;;
10343;SDS011;5217;43.960;10.954;2022-08-25T04:52:35;7.00;;;3.22;;
10343;SDS011;5217;43.960;10.954;2022-08-25T04:55:05;3.28;;;2.97;;
10343;SDS011;5217;43.960;10.954;2022-08-25T04:57:34;8.57;;;3.65;;
10343;SDS011;5217;43.960;10.954;2022-08-25T05:00:03;3.85;;;3.30;;
10343;SDS011;5217;43.960;10.954;2022-08-25T05:02:33;3.40;;;3.05;;
10343;SDS011;5217;43.960;10.954;2022-08-25T05:05:02;3.25;;;2.95;;
10343;SDS011;5217;43.960;10.954;2022-08-25T05:07:32;3.42;;;3.05;;
10343;SDS011;5217;43.960;10.954;2022-08-25T05:10:00;3.13;;;2.83;;
10343;SDS011;5217;43.960;10.954;2022-08-25T05:12:31;3.10;;;2.80;;
10343;SDS011;5217;43.960;10.954;2022-08-25T05:15:00;3.08;;;2.80;;
10343;SDS011;5217;43.960;10.954;2022-08-25T05:17:50;3.15;;;2.85;;
10343;SDS011;5217;43.960;10.954;2022-08-25T05:20:21;3.28;;;2.95;;
10343;SDS011;5217;43.960;10.954;2022-08-25T05:22:50;3.03;;;2.83;;
10343;SDS011;5217;43.960;10.954;2022-08-25T05:25:19;3.40;;;3.10;;
10343;SDS011;5217;43.960;10.954;2022-08-25T05:27:49;2.83;;;2.63;;
10343;SDS011;5217;43.960;10.954;2022-08-25T05:30:17;3.50;;;2.95;;
10343;SDS011;5217;43.960;10.954;2022-08-25T05:32:46;3.13;;;2.92;;
10343;SDS011;5217;43.960;10.954;2022-08-25T05:35:14;3.10;;;2.90;;
10343;SDS011;5217;43.960;10.954;2022-08-25T05:37:44;3.03;;;2.83;;
10343;SDS011;5217;43.960;10.954;2022-08-25T05:40:13;3.20;;;2.90;;
10343;SDS011;5217;43.960;10.954;2022-08-25T05:42:41;3.95;;;2.88;;
10343;SDS011;5217;43.960;10.954;2022-08-25T05:45:11;3.33;;;3.08;;
10343;SDS011;5217;43.960;10.954;2022-08-25T05:47:46;3.30;;;3.00;;
10343;SDS011;5217;43.960;10.954;2022-08-25T05:50:14;3.13;;;2.90;;
10343;SDS011;5217;43.960;10.954;2022-08-25T05:52:43;3.08;;;2.78;;
10343;SDS011;5217;43.960;10.954;2022-08-25T05:55:12;3.75;;;3.33;;
10343;SDS011;5217;43.960;10.954;2022-08-25T05:57:41;2.95;;;2.72;;
10343;SDS011;5217;43.960;10.954;2022-08-25T06:00:10;3.33;;;3.03;;
10343;SDS011;5217;43.960;10.954;2022-08-25T06:02:40;4.07;;;3.15;;
10343;SDS011;5217;43.960;10.954;2022-08-25T06:05:10;3.15;;;2.95;;
10343;SDS011;5217;43.960;10.954;2022-08-25T06:07:40;3.22;;;2.92;;
10343;SDS011;5217;43.960;10.954;2022-08-25T06:10:09;3.00;;;2.80;;
10343;SDS011;5217;43.960;10.954;2022-08-25T06:12:39;4.20;;;2.92;;
10343;SDS011;5217;43.960;10.954;2022-08-25T06:15:12;3.25;;;2.95;;
10343;SDS011;5217;43.960;10.954;2022-08-25T06:17:42;3.20;;;2.90;;
10343;SDS011;5217;43.960;10.954;2022-08-25T06:20:11;3.13;;;2.75;;
10343;SDS011;5217;43.960;10.954;2022-08-25T06:22:41;3.20;;;2.90;;
10343;SDS011;5217;43.960;10.954;2022-08-25T06:25:11;3.97;;;3.17;;
10343;SDS011;5217;43.960;10.954;2022-08-25T06:27:41;3.53;;;2.55;;
10343;SDS011;5217;43.960;10.954;2022-08-25T06:30:13;3.25;;;2.95;;
10343;SDS011;5217;43.960;10.954;2022-08-25T06:32:50;2.90;;;2.63;;
10343;SDS011;5217;43.960;10.954;2022-08-25T06:35:18;4.05;;;2.83;;
10343;SDS011;5217;43.960;10.954;2022-08-25T06:37:48;3.65;;;3.35;;
10343;SDS011;5217;43.960;10.954;2022-08-25T06:40:16;4.35;;;3.50;;
10343;SDS011;5217;43.960;10.954;2022-08-25T06:42:46;4.05;;;3.22;;
10343;SDS011;5217;43.960;10.954;2022-08-25T06:45:16;4.78;;;3.20;;
10343;SDS011;5217;43.960;10.954;2022-08-25T06:47:45;4.20;;;3.80;;
10343;SDS011;5217;43.960;10.954;2022-08-25T06:50:14;4.35;;;3.97;;
10343;SDS011;5217;43.960;10.954;2022-08-25T06:52:42;6.60;;;4.15;;
10343;SDS011;5217;43.960;10.954;2022-08-25T06:55:11;4.10;;;3.70;;
10343;SDS011;5217;43.960;10.954;2022-08-25T06:57:39;3.63;;;3.22;;
10343;SDS011;5217;43.960;10.954;2022-08-25T07:00:08;4.10;;;3.72;;
10343;SDS011;5217;43.960;10.954;2022-08-25T07:02:39;4.60;;;3.78;;
10343;SDS011;5217;43.960;10.954;2022-08-25T07:05:08;7.00;;;4.10;;
10343;SDS011;5217;43.960;10.954;2022-08-25T07:07:52;3.85;;;3.55;;
10343;SDS011;5217;43.960;10.954;2022-08-25T07:10:20;4.57;;;3.90;;
10343;SDS011;5217;43.960;10.954;2022-08-25T07:12:49;4.45;;;4.05;;
10343;SDS011;5217;43.960;10.954;2022-08-25T07:15:18;4.20;;;3.80;;
10343;SDS011;5217;43.960;10.954;2022-08-25T07:17:48;4.95;;;3.90;;
10343;SDS011;5217;43.960;10.954;2022-08-25T07:20:17;4.35;;;3.95;;
10343;SDS011;5217;43.960;10.954;2022-08-25T07:22:46;6.15;;;4.07;;
10343;SDS011;5217;43.960;10.954;2022-08-25T07:25:15;6.75;;;3.80;;
10343;SDS011;5217;43.960;10.954;2022-08-25T07:27:44;4.45;;;3.58;;
10343;SDS011;5217;43.960;10.954;2022-08-25T07:30:12;5.28;;;3.63;;
10343;SDS011;5217;43.960;10.954;2022-08-25T07:32:41;4.03;;;3.25;;
10343;SDS011;5217;43.960;10.954;2022-08-25T07:35:11;3.88;;;3.30;;
10343;SDS011;5217;43.960;10.954;2022-08-25T07:37:45;3.90;;;3.50;;
10343;SDS011;5217;43.960;10.954;2022-08-25T07:40:16;6.10;;;3.60;;
10343;SDS011;5217;43.960;10.954;2022-08-25T07:42:47;3.95;;;3.55;;
10343;SDS011;5217;43.960;10.954;2022-08-25T07:45:16;3.33;;;3.03;;
10343;SDS011;5217;43.960;10.954;2022-08-25T07:47:46;3.45;;;3.15;;
10343;SDS011;5217;43.960;10.954;2022-08-25T07:50:19;3.47;;;3.17;;
10343;SDS011;5217;43.960;10.954;2022-08-25T07:52:48;3.90;;;3.22;;
10343;SDS011;5217;43.960;10.954;2022-08-25T07:55:21;3.33;;;2.80;;
10343;SDS011;5217;43.960;10.954;2022-08-25T07:57:51;3.20;;;2.92;;
10343;SDS011;5217;43.960;10.954;2022-08-25T08:00:22;3.20;;;2.90;;
10343;SDS011;5217;43.960;10.954;2022-08-25T08:02:55;3.78;;;3.10;;
10343;SDS011;5217;43.960;10.954;2022-08-25T08:05:26;3.72;;;3.08;;
10343;SDS011;5217;43.960;10.954;2022-08-25T08:07:55;3.08;;;2.55;;
10343;SDS011;5217;43.960;10.954;2022-08-25T08:10:25;3.65;;;2.78;;
10343;SDS011;5217;43.960;10.954;2022-08-25T08:13:14;3.30;;;3.00;;
10343;SDS011;5217;43.960;10.954;2022-08-25T08:15:44;3.22;;;2.92;;
10343;SDS011;5217;43.960;10.954;2022-08-25T08:18:13;3.63;;;2.80;;
10343;SDS011;5217;43.960;10.954;2022-08-25T08:20:45;3.75;;;3.10;;
10343;SDS011;5217;43.960;10.954;2022-08-25T08:23:15;2.85;;;2.65;;
10343;SDS011;5217;43.960;10.954;2022-08-25T08:25:43;4.65;;;2.90;;
10343;SDS011;5217;43.960;10.954;2022-08-25T08:28:13;2.60;;;2.40;;
10343;SDS011;5217;43.960;10.954;2022-08-25T08:30:41;2.95;;;2.58;;
10343;SDS011;5217;43.960;10.954;2022-08-25T08:33:19;3.42;;;2.30;;
10343;SDS011;5217;43.960;10.954;2022-08-25T08:35:55;2.50;;;2.30;;
10343;SDS011;5217;43.960;10.954;2022-08-25T08:38:30;4.47;;;2.65;;
10343;SDS011;5217;43.960;10.954;2022-08-25T08:41:02;3.58;;;2.35;;
10343;SDS011;5217;43.960;10.954;2022-08-25T08:44:07;2.67;;;2.42;;
10343;SDS011;5217;43.960;10.954;2022-08-25T08:46:48;2.60;;;2.40;;
10343;SDS011;5217;43.960;10.954;2022-08-25T08:49:26;2.40;;;2.20;;
10343;SDS011;5217;43.960;10.954;2022-08-25T08:52:01;2.97;;;2.45;;
10343;SDS011;5217;43.960;10.954;2022-08-25T08:54:31;3.10;;;2.30;;
10343;SDS011;5217;43.960;10.954;2022-08-25T08:57:08;2.33;;;2.22;;
10343;SDS011;5217;43.960;10.954;2022-08-25T08:59:41;2.40;;;2.20;;
10343;SDS011;5217;43.960;10.954;2022-08-25T09:02:17;2.88;;;2.35;;
10343;SDS011;5217;43.960;10.954;2022-08-25T09:05:12;5.18;;;2.30;;
10343;SDS011;5217;43.960;10.954;2022-08-25T09:07:48;2.20;;;1.98;;
10343;SDS011;5217;43.960;10.954;2022-08-25T09:10:20;3.47;;;2.30;;
10343;SDS011;5217;43.960;10.954;2022-08-25T09:12:53;3.45;;;2.08;;
10343;SDS011;5217;43.960;10.954;2022-08-25T09:15:39;2.85;;;2.30;;
10343;SDS011;5217;43.960;10.954;2022-08-25T09:18:37;2.40;;;2.20;;
10343;SDS011;5217;43.960;10.954;2022-08-25T09:21:19;2.28;;;2.08;;
10343;SDS011;5217;43.960;10.954;2022-08-25T09:24:11;2.30;;;2.10;;
10343;SDS011;5217;43.960;10.954;2022-08-25T09:26:51;2.47;;;2.22;;
10343;SDS011;5217;43.960;10.954;2022-08-25T09:29:29;2.72;;;2.00;;
10343;SDS011;5217;43.960;10.954;2022-08-25T09:32:07;2.63;;;2.30;;
10343;SDS011;5217;43.960;10.954;2022-08-25T09:34:40;2.88;;;2.20;;
10343;SDS011;5217;43.960;10.954;2022-08-25T09:37:08;2.53;;;2.30;;
10343;SDS011;5217;43.960;10.954;2022-08-25T09:39:38;3.03;;;2.30;;
10343;SDS011;5217;43.960;10.954;2022-08-25T09:42:07;2.28;;;2.10;;
10343;SDS011;5217;43.960;10.954;2022-08-25T09:44:38;2.15;;;2.05;;
10343;SDS011;5217;43.960;10.954;2022-08-25T09:47:13;3.25;;;2.30;;
10343;SDS011;5217;43.960;10.954;2022-08-25T09:49:49;2.40;;;2.15;;
10343;SDS011;5217;43.960;10.954;2022-08-25T09:52:29;4.93;;;2.22;;
10343;SDS011;5217;43.960;10.954;2022-08-25T09:55:14;3.97;;;2.15;;
10343;SDS011;5217;43.960;10.954;2022-08-25T09:57:58;3.10;;;2.40;;
10343;SDS011;5217;43.960;10.954;2022-08-25T10:00:34;2.90;;;2.33;;
10343;SDS011;5217;43.960;10.954;2022-08-25T10:03:05;3.03;;;2.40;;
10343;SDS011;5217;43.960;10.954;2022-08-25T10:05:37;2.47;;;2.08;;
10343;SDS011;5217;43.960;10.954;2022-08-25T10:08:23;2.10;;;1.90;;
10343;SDS011;5217;43.960;10.954;2022-08-25T10:10:59;1.95;;;1.85;;
10343;SDS011;5217;43.960;10.954;2022-08-25T10:13:35;2.30;;;2.10;;
10343;SDS011;5217;43.960;10.954;2022-08-25T10:16:10;2.28;;;2.08;;
10343;SDS011;5217;43.960;10.954;2022-08-25T10:19:00;2.03;;;1.83;;
10343;SDS011;5217;43.960;10.954;2022-08-25T10:21:32;2.58;;;2.10;;
10343;SDS011;5217;43.960;10.954;2022-08-25T10:24:02;2.00;;;1.90;;
10343;SDS011;5217;43.960;10.954;2022-08-25T10:26:49;2.53;;;2.33;;
10343;SDS011;5217;43.960;10.954;2022-08-25T10:29:30;2.92;;;2.20;;
10343;SDS011;5217;43.960;10.954;2022-08-25T10:32:17;3.03;;;2.10;;
10343;SDS011;5217;43.960;10.954;2022-08-25T10:34:53;2.92;;;2.10;;
10343;SDS011;5217;43.960;10.954;2022-08-25T10:37:30;2.17;;;1.98;;
10343;SDS011;5217;43.960;10.954;2022-08-25T10:40:07;2.38;;;2.17;;
10343;SDS011;5217;43.960;10.954;2022-08-25T10:42:45;3.00;;;2.38;;
10343;SDS011;5217;43.960;10.954;2022-08-25T10:45:24;2.58;;;2.20;;
10343;SDS011;5217;43.960;10.954;2022-08-25T10:48:18;2.50;;;2.30;;
10343;SDS011;5217;43.960;10.954;2022-08-25T10:51:03;2.50;;;2.17;;
10343;SDS011;5217;43.960;10.954;2022-08-25T10:53:47;2.92;;;2.10;;
10343;SDS011;5217;43.960;10.954;2022-08-25T10:56:23;3.22;;;2.10;;
10343;SDS011;5217;43.960;10.954;2022-08-25T10:59:10;2.13;;;2.00;;
10343;SDS011;5217;43.960;10.954;2022-08-25T11:01:54;2.30;;;2.10;;
10343;SDS011;5217;43.960;10.954;2022-08-25T11:04:52;1.92;;;1.80;;
10343;SDS011;5217;43.960;10.954;2022-08-25T11:07:27;2.10;;;2.00;;
10343;SDS011;5217;43.960;10.954;2022-08-25T11:10:02;1.95;;;1.85;;
10343;SDS011;5217;43.960;10.954;2022-08-25T11:12:37;2.20;;;2.00;;
10343;SDS011;5217;43.960;10.954;2022-08-25T11:15:11;2.35;;;2.10;;
10343;SDS011;5217;43.960;10.954;2022-08-25T11:17:46;2.63;;;2.00;;
10343;SDS011;5217;43.960;10.954;2022-08-25T11:20:21;1.83;;;1.73;;
10343;SDS011;5217;43.960;10.954;2022-08-25T11:22:57;2.83;;;1.70;;
10343;SDS011;5217;43.960;10.954;2022-08-25T11:25:37;2.00;;;1.90;;
10343;SDS011;5217;43.960;10.954;2022-08-25T11:28:10;3.80;;;1.73;;
10343;SDS011;5217;43.960;10.954;2022-08-25T11:30:42;1.83;;;1.73;;
10343;SDS011;5217;43.960;10.954;2022-08-25T11:33:12;2.22;;;1.92;;
10343;SDS011;5217;43.960;10.954;2022-08-25T11:35:46;2.13;;;1.73;;
10343;SDS011;5217;43.960;10.954;2022-08-25T11:38:21;1.60;;;1.50;;
10343;SDS011;5217;43.960;10.954;2022-08-25T11:41:04;2.20;;;2.00;;
10343;SDS011;5217;43.960;10.954;2022-08-25T11:43:50;2.50;;;1.90;;
10343;SDS011;5217;43.960;10.954;2022-08-25T11:46:38;2.08;;;1.88;;
10343;SDS011;5217;43.960;10.954;2022-08-25T11:49:29;2.40;;;1.90;;
10343;SDS011;5217;43.960;10.954;2022-08-25T11:55:20;5.35;;;1.77;;
10343;SDS011;5217;43.960;10.954;2022-08-25T11:58:13;3.03;;;1.70;;
10343;SDS011;5217;43.960;10.954;2022-08-25T12:00:51;1.80;;;1.65;;
10343;SDS011;5217;43.960;10.954;2022-08-25T12:10:19;1.88;;;1.70;;
10343;SDS011;5217;43.960;10.954;2022-08-25T12:13:02;2.55;;;1.70;;
10343;SDS011;5217;43.960;10.954;2022-08-25T12:15:54;3.25;;;1.65;;
10343;SDS011;5217;43.960;10.954;2022-08-25T12:18:38;1.50;;;1.40;;
10343;SDS011;5217;43.960;10.954;2022-08-25T12:21:14;1.70;;;1.45;;
10343;SDS011;5217;43.960;10.954;2022-08-25T12:26:43;3.50;;;1.67;;
10343;SDS011;5217;43.960;10.954;2022-08-25T12:29:20;2.28;;;1.60;;
10343;SDS011;5217;43.960;10.954;2022-08-25T12:31:59;1.60;;;1.50;;
10343;SDS011;5217;43.960;10.954;2022-08-25T12:34:49;1.95;;;1.60;;
10343;SDS011;5217;43.960;10.954;2022-08-25T12:37:53;2.53;;;1.70;;
10343;SDS011;5217;43.960;10.954;2022-08-25T12:40:25;2.38;;;1.67;;
10343;SDS011;5217;43.960;10.954;2022-08-25T12:43:01;1.83;;;1.65;;
10343;SDS011;5217;43.960;10.954;2022-08-25T12:45:35;1.85;;;1.75;;
10343;SDS011;5217;43.960;10.954;2022-08-25T12:51:15;1.60;;;1.50;;
10343;SDS011;5217;43.960;10.954;2022-08-25T12:53:47;3.67;;;1.63;;
10343;SDS011;5217;43.960;10.954;2022-08-25T12:56:20;2.20;;;1.65;;
10343;SDS011;5217;43.960;10.954;2022-08-25T12:58:54;2.05;;;1.60;;
10343;SDS011;5217;43.960;10.954;2022-08-25T13:01:31;1.58;;;1.48;;
10343;SDS011;5217;43.960;10.954;2022-08-25T13:07:36;2.33;;;1.90;;
10343;SDS011;5217;43.960;10.954;2022-08-25T13:10:32;2.17;;;1.85;;
10343;SDS011;5217;43.960;10.954;2022-08-25T13:13:12;1.60;;;1.50;;
10343;SDS011;5217;43.960;10.954;2022-08-25T13:15:46;1.85;;;1.67;;
10343;SDS011;5217;43.960;10.954;2022-08-25T13:18:26;1.60;;;1.50;;
10343;SDS011;5217;43.960;10.954;2022-08-25T13:21:02;1.83;;;1.73;;
10343;SDS011;5217;43.960;10.954;2022-08-25T13:23:36;1.77;;;1.67;;
10343;SDS011;5217;43.960;10.954;2022-08-25T13:26:09;2.40;;;1.85;;
10343;SDS011;5217;43.960;10.954;2022-08-25T13:28:41;1.90;;;1.80;;
10343;SDS011;5217;43.960;10.954;2022-08-25T13:31:16;1.70;;;1.60;;
10343;SDS011;5217;43.960;10.954;2022-08-25T13:33:51;1.98;;;1.70;;
10343;SDS011;5217;43.960;10.954;2022-08-25T13:36:22;1.90;;;1.80;;
10343;SDS011;5217;43.960;10.954;2022-08-25T13:39:20;1.92;;;1.83;;
10343;SDS011;5217;43.960;10.954;2022-08-25T13:42:12;1.70;;;1.60;;
10343;SDS011;5217;43.960;10.954;2022-08-25T13:44:43;1.75;;;1.60;;
10343;SDS011;5217;43.960;10.954;2022-08-25T13:47:31;1.88;;;1.60;;
10343;SDS011;5217;43.960;10.954;2022-08-25T13:50:19;2.83;;;1.65;;
10343;SDS011;5217;43.960;10.954;2022-08-25T13:52:59;2.65;;;1.90;;
10343;SDS011;5217;43.960;10.954;2022-08-25T13:55:32;2.53;;;1.98;;
10343;SDS011;5217;43.960;10.954;2022-08-25T13:58:18;2.22;;;1.90;;
10343;SDS011;5217;43.960;10.954;2022-08-25T14:01:11;3.15;;;1.80;;
10343;SDS011;5217;43.960;10.954;2022-08-25T14:04:22;2.38;;;1.90;;
10343;SDS011;5217;43.960;10.954;2022-08-25T14:07:05;2.78;;;2.10;;
10343;SDS011;5217;43.960;10.954;2022-08-25T14:09:39;5.00;;;1.95;;
10343;SDS011;5217;43.960;10.954;2022-08-25T14:12:31;2.13;;;1.70;;
10343;SDS011;5217;43.960;10.954;2022-08-25T14:15:06;2.75;;;1.90;;
10343;SDS011;5217;43.960;10.954;2022-08-25T14:17:38;2.85;;;2.00;;
10343;SDS011;5217;43.960;10.954;2022-08-25T14:20:17;2.13;;;1.80;;
10343;SDS011;5217;43.960;10.954;2022-08-25T14:22:51;1.90;;;1.80;;
10343;SDS011;5217;43.960;10.954;2022-08-25T14:25:24;3.28;;;1.85;;
10343;SDS011;5217;43.960;10.954;2022-08-25T14:27:56;2.50;;;1.80;;
10343;SDS011;5217;43.960;10.954;2022-08-25T14:30:41;2.30;;;2.10;;
10343;SDS011;5217;43.960;10.954;2022-08-25T14:33:12;1.98;;;1.88;;
10343;SDS011;5217;43.960;10.954;2022-08-25T14:35:43;2.63;;;1.80;;
10343;SDS011;5217;43.960;10.954;2022-08-25T14:38:13;2.35;;;2.08;;
10343;SDS011;5217;43.960;10.954;2022-08-25T14:40:43;2.28;;;2.08;;
10343;SDS011;5217;43.960;10.954;2022-08-25T14:43:12;2.33;;;1.75;;
10343;SDS011;5217;43.960;10.954;2022-08-25T14:45:43;2.15;;;1.83;;
10343;SDS011;5217;43.960;10.954;2022-08-25T14:48:16;2.17;;;1.98;;
10343;SDS011;5217;43.960;10.954;2022-08-25T14:50:49;3.42;;;2.15;;
10343;SDS011;5217;43.960;10.954;2022-08-25T14:53:18;1.80;;;1.70;;
10343;SDS011;5217;43.960;10.954;2022-08-25T14:55:47;2.25;;;1.90;;
10343;SDS011;5217;43.960;10.954;2022-08-25T14:58:24;2.00;;;1.80;;
10343;SDS011;5217;43.960;10.954;2022-08-25T15:01:00;8.88;;;2.13;;
10343;SDS011;5217;43.960;10.954;2022-08-25T15:03:33;5.85;;;1.85;;
10343;SDS011;5217;43.960;10.954;2022-08-25T15:06:04;1.92;;;1.73;;
10343;SDS011;5217;43.960;10.954;2022-08-25T15:08:36;2.20;;;1.88;;
10343;SDS011;5217;43.960;10.954;2022-08-25T15:11:23;3.42;;;1.73;;
10343;SDS011;5217;43.960;10.954;2022-08-25T15:13:54;2.28;;;1.73;;
10343;SDS011;5217;43.960;10.954;2022-08-25T15:16:26;2.85;;;1.95;;
10343;SDS011;5217;43.960;10.954;2022-08-25T15:19:00;3.88;;;1.90;;
10343;SDS011;5217;43.960;10.954;2022-08-25T15:21:32;6.60;;;2.20;;
10343;SDS011;5217;43.960;10.954;2022-08-25T15:24:01;2.15;;;1.88;;
10343;SDS011;5217;43.960;10.954;2022-08-25T15:26:30;2.40;;;1.75;;
10343;SDS011;5217;43.960;10.954;2022-08-25T15:29:01;2.38;;;1.70;;
10343;SDS011;5217;43.960;10.954;2022-08-25T15:31:31;2.08;;;1.80;;
10343;SDS011;5217;43.960;10.954;2022-08-25T15:34:00;1.83;;;1.70;;
10343;SDS011;5217;43.960;10.954;2022-08-25T15:36:31;3.35;;;1.80;;
10343;SDS011;5217;43.960;10.954;2022-08-25T15:39:04;1.52;;;1.42;;
10343;SDS011;5217;43.960;10.954;2022-08-25T15:41:34;2.55;;;1.83;;
10343;SDS011;5217;43.960;10.954;2022-08-25T15:44:03;3.55;;;1.80;;
10343;SDS011;5217;43.960;10.954;2022-08-25T15:46:34;2.45;;;1.80;;